sensor_id;sensor_type;location;lat;lon;timestamp;P1;durP1;ratioP1;P2;durP2;ratioP2
9667;SDS011;4872;48.316;10.650;2023-06-14T04:07:37;8.93;;;5.87;;
9667;SDS011;4872;48.316;10.650;2023-06-14T04:10:05;10.50;;;6.57;;
9667;SDS011;4872;48.316;10.650;2023-06-14T04:12:33;6.60;;;5.90;;
9667;SDS011;4872;48.316;10.650;2023-06-14T04:15:00;7.83;;;5.97;;
9667;SDS011;4872;48.316;10.650;2023-06-14T04:17:27;7.07;;;5.97;;
9667;SDS011;4872;48.316;10.650;2023-06-14T04:19:54;9.07;;;6.30;;
9667;SDS011;4872;48.316;10.650;2023-06-14T04:22:23;7.13;;;6.33;;
9667;SDS011;4872;48.316;10.650;2023-06-14T04:24:54;8.47;;;6.50;;
9667;SDS011;4872;48.316;10.650;2023-06-14T04:27:21;6.97;;;6.27;;
9667;SDS011;4872;48.316;10.650;2023-06-14T04:29:50;9.20;;;6.33;;
9667;SDS011;4872;48.316;10.650;2023-06-14T04:32:21;9.20;;;8.23;;
9667;SDS011;4872;48.316;10.650;2023-06-14T04:34:50;11.40;;;7.40;;
9667;SDS011;4872;48.316;10.650;2023-06-14T04:37:18;7.13;;;6.43;;
9667;SDS011;4872;48.316;10.650;2023-06-14T04:39:46;7.93;;;6.80;;
9667;SDS011;4872;48.316;10.650;2023-06-14T04:42:14;8.50;;;7.60;;
9667;SDS011;4872;48.316;10.650;2023-06-14T04:44:42;9.17;;;7.67;;
9667;SDS011;4872;48.316;10.650;2023-06-14T04:47:10;8.10;;;6.83;;
9667;SDS011;4872;48.316;10.650;2023-06-14T04:49:37;9.40;;;6.97;;
9667;SDS011;4872;48.316;10.650;2023-06-14T04:52:05;8.60;;;7.00;;
9667;SDS011;4872;48.316;10.650;2023-06-14T04:54:35;10.17;;;7.30;;
9667;SDS011;4872;48.316;10.650;2023-06-14T04:57:03;7.57;;;6.40;;
9667;SDS011;4872;48.316;10.650;2023-06-14T04:59:32;7.27;;;6.53;;
9667;SDS011;4872;48.316;10.650;2023-06-14T05:02:00;8.37;;;7.47;;
9667;SDS011;4872;48.316;10.650;2023-06-14T05:04:27;9.73;;;8.00;;
9667;SDS011;4872;48.316;10.650;2023-06-14T05:06:54;9.63;;;7.17;;
9667;SDS011;4872;48.316;10.650;2023-06-14T05:09:21;7.70;;;6.90;;
9667;SDS011;4872;48.316;10.650;2023-06-14T05:11:48;8.80;;;7.17;;
9667;SDS011;4872;48.316;10.650;2023-06-14T05:14:15;9.53;;;8.10;;
9667;SDS011;4872;48.316;10.650;2023-06-14T05:16:43;9.03;;;7.23;;
9667;SDS011;4872;48.316;10.650;2023-06-14T05:19:11;9.60;;;7.57;;
9667;SDS011;4872;48.316;10.650;2023-06-14T05:21:37;7.30;;;6.60;;
9667;SDS011;4872;48.316;10.650;2023-06-14T05:24:04;8.60;;;7.67;;
9667;SDS011;4872;48.316;10.650;2023-06-14T05:26:32;9.73;;;7.60;;
9667;SDS011;4872;48.316;10.650;2023-06-14T05:28:58;8.77;;;6.80;;
9667;SDS011;4872;48.316;10.650;2023-06-14T05:31:26;9.93;;;7.37;;
9667;SDS011;4872;48.316;10.650;2023-06-14T05:33:54;7.77;;;7.00;;
9667;SDS011;4872;48.316;10.650;2023-06-14T05:36:21;8.30;;;6.53;;
9667;SDS011;4872;48.316;10.650;2023-06-14T05:38:48;9.87;;;7.57;;
9667;SDS011;4872;48.316;10.650;2023-06-14T05:41:15;7.03;;;6.33;;
9667;SDS011;4872;48.316;10.650;2023-06-14T05:43:42;8.27;;;7.37;;
9667;SDS011;4872;48.316;10.650;2023-06-14T05:46:09;8.97;;;7.23;;
9667;SDS011;4872;48.316;10.650;2023-06-14T05:48:35;9.10;;;6.90;;
9667;SDS011;4872;48.316;10.650;2023-06-14T05:51:04;8.47;;;7.50;;
9667;SDS011;4872;48.316;10.650;2023-06-14T05:53:33;10.10;;;6.80;;
9667;SDS011;4872;48.316;10.650;2023-06-14T05:56:00;10.30;;;7.30;;
9667;SDS011;4872;48.316;10.650;2023-06-14T05:58:27;8.50;;;7.13;;
9667;SDS011;4872;48.316;10.650;2023-06-14T06:00:54;8.17;;;5.80;;
9667;SDS011;4872;48.316;10.650;2023-06-14T06:03:21;7.73;;;6.30;;
9667;SDS011;4872;48.316;10.650;2023-06-14T06:05:47;7.73;;;6.93;;
9667;SDS011;4872;48.316;10.650;2023-06-14T06:08:16;9.17;;;6.33;;
9667;SDS011;4872;48.316;10.650;2023-06-14T06:10:42;9.67;;;7.00;;
9667;SDS011;4872;48.316;10.650;2023-06-14T06:13:09;7.50;;;6.47;;
9667;SDS011;4872;48.316;10.650;2023-06-14T06:15:36;7.83;;;7.00;;
9667;SDS011;4872;48.316;10.650;2023-06-14T06:18:03;6.93;;;6.23;;
9667;SDS011;4872;48.316;10.650;2023-06-14T06:20:29;7.53;;;6.40;;
9667;SDS011;4872;48.316;10.650;2023-06-14T06:22:56;12.03;;;6.40;;
9667;SDS011;4872;48.316;10.650;2023-06-14T06:25:25;7.00;;;6.30;;
9667;SDS011;4872;48.316;10.650;2023-06-14T06:27:53;8.83;;;6.63;;
9667;SDS011;4872;48.316;10.650;2023-06-14T06:30:21;8.10;;;6.60;;
9667;SDS011;4872;48.316;10.650;2023-06-14T06:32:48;9.60;;;5.80;;
9667;SDS011;4872;48.316;10.650;2023-06-14T06:35:15;8.80;;;6.23;;
9667;SDS011;4872;48.316;10.650;2023-06-14T06:37:42;8.03;;;5.93;;
9667;SDS011;4872;48.316;10.650;2023-06-14T06:40:09;6.37;;;5.40;;
9667;SDS011;4872;48.316;10.650;2023-06-14T06:42:38;7.27;;;6.00;;
9667;SDS011;4872;48.316;10.650;2023-06-14T06:45:05;7.77;;;6.07;;
9667;SDS011;4872;48.316;10.650;2023-06-14T06:47:32;6.90;;;5.73;;
9667;SDS011;4872;48.316;10.650;2023-06-14T06:49:59;6.63;;;5.50;;
9667;SDS011;4872;48.316;10.650;2023-06-14T06:52:26;8.20;;;5.17;;
9667;SDS011;4872;48.316;10.650;2023-06-14T06:54:52;8.30;;;5.90;;
9667;SDS011;4872;48.316;10.650;2023-06-14T06:57:21;6.97;;;5.27;;
9667;SDS011;4872;48.316;10.650;2023-06-14T06:59:49;6.40;;;5.37;;
9667;SDS011;4872;48.316;10.650;2023-06-14T07:02:16;6.87;;;5.27;;
9667;SDS011;4872;48.316;10.650;2023-06-14T07:04:43;7.80;;;5.03;;
9667;SDS011;4872;48.316;10.650;2023-06-14T07:07:10;10.60;;;5.30;;
9667;SDS011;4872;48.316;10.650;2023-06-14T07:09:36;6.90;;;5.33;;
9667;SDS011;4872;48.316;10.650;2023-06-14T07:12:03;8.40;;;5.23;;
9667;SDS011;4872;48.316;10.650;2023-06-14T07:14:30;8.40;;;5.30;;
9667;SDS011;4872;48.316;10.650;2023-06-14T07:16:59;7.10;;;5.10;;
9667;SDS011;4872;48.316;10.650;2023-06-14T07:19:25;5.70;;;5.17;;
9667;SDS011;4872;48.316;10.650;2023-06-14T07:21:52;5.27;;;4.40;;
9667;SDS011;4872;48.316;10.650;2023-06-14T07:24:19;5.87;;;4.60;;
9667;SDS011;4872;48.316;10.650;2023-06-14T07:26:47;7.97;;;5.17;;
9667;SDS011;4872;48.316;10.650;2023-06-14T07:29:15;5.30;;;3.87;;
9667;SDS011;4872;48.316;10.650;2023-06-14T07:31:41;4.83;;;4.40;;
9667;SDS011;4872;48.316;10.650;2023-06-14T07:34:10;5.37;;;4.07;;
9667;SDS011;4872;48.316;10.650;2023-06-14T07:36:37;5.23;;;3.70;;
9667;SDS011;4872;48.316;10.650;2023-06-14T07:39:03;6.67;;;4.47;;
9667;SDS011;4872;48.316;10.650;2023-06-14T07:41:31;5.40;;;4.17;;
9667;SDS011;4872;48.316;10.650;2023-06-14T07:43:58;5.63;;;4.23;;
9667;SDS011;4872;48.316;10.650;2023-06-14T07:46:25;5.67;;;4.33;;
9667;SDS011;4872;48.316;10.650;2023-06-14T07:48:51;7.37;;;3.77;;
9667;SDS011;4872;48.316;10.650;2023-06-14T07:51:19;6.97;;;4.43;;
9667;SDS011;4872;48.316;10.650;2023-06-14T07:53:47;4.43;;;3.80;;
9667;SDS011;4872;48.316;10.650;2023-06-14T07:56:14;5.20;;;4.13;;
9667;SDS011;4872;48.316;10.650;2023-06-14T07:58:41;6.77;;;4.10;;
9667;SDS011;4872;48.316;10.650;2023-06-14T08:01:08;5.30;;;4.07;;
9667;SDS011;4872;48.316;10.650;2023-06-14T08:03:36;5.23;;;4.07;;
9667;SDS011;4872;48.316;10.650;2023-06-14T08:06:03;3.90;;;3.50;;
9667;SDS011;4872;48.316;10.650;2023-06-14T08:08:31;6.93;;;3.93;;
9667;SDS011;4872;48.316;10.650;2023-06-14T08:10:58;4.60;;;4.13;;
9667;SDS011;4872;48.316;10.650;2023-06-14T08:13:25;5.90;;;4.33;;
9667;SDS011;4872;48.316;10.650;2023-06-14T08:15:51;5.33;;;3.87;;
9667;SDS011;4872;48.316;10.650;2023-06-14T08:18:18;4.73;;;3.70;;
9667;SDS011;4872;48.316;10.650;2023-06-14T08:20:45;4.30;;;3.87;;
9667;SDS011;4872;48.316;10.650;2023-06-14T08:23:11;8.03;;;3.80;;
9667;SDS011;4872;48.316;10.650;2023-06-14T08:25:40;4.77;;;3.87;;
9667;SDS011;4872;48.316;10.650;2023-06-14T08:28:06;4.27;;;3.87;;
9667;SDS011;4872;48.316;10.650;2023-06-14T08:30:33;3.57;;;3.27;;
9667;SDS011;4872;48.316;10.650;2023-06-14T08:33:00;3.97;;;3.63;;
9667;SDS011;4872;48.316;10.650;2023-06-14T08:35:27;6.53;;;3.60;;
9667;SDS011;4872;48.316;10.650;2023-06-14T08:37:54;5.13;;;4.00;;
9667;SDS011;4872;48.316;10.650;2023-06-14T08:40:21;3.97;;;3.57;;
9667;SDS011;4872;48.316;10.650;2023-06-14T08:42:51;3.90;;;3.47;;
9667;SDS011;4872;48.316;10.650;2023-06-14T08:45:19;3.83;;;3.43;;
9667;SDS011;4872;48.316;10.650;2023-06-14T08:47:46;3.83;;;3.40;;
9667;SDS011;4872;48.316;10.650;2023-06-14T08:50:17;5.57;;;3.63;;
9667;SDS011;4872;48.316;10.650;2023-06-14T08:52:46;7.17;;;3.70;;
9667;SDS011;4872;48.316;10.650;2023-06-14T08:55:18;4.23;;;3.20;;
9667;SDS011;4872;48.316;10.650;2023-06-14T08:57:46;4.80;;;3.80;;
9667;SDS011;4872;48.316;10.650;2023-06-14T09:00:15;7.33;;;3.43;;
9667;SDS011;4872;48.316;10.650;2023-06-14T09:02:43;4.47;;;3.50;;
9667;SDS011;4872;48.316;10.650;2023-06-14T09:05:10;4.57;;;3.80;;
9667;SDS011;4872;48.316;10.650;2023-06-14T09:07:38;4.90;;;3.00;;
9667;SDS011;4872;48.316;10.650;2023-06-14T09:10:07;5.13;;;3.50;;
9667;SDS011;4872;48.316;10.650;2023-06-14T09:12:35;4.40;;;3.50;;
9667;SDS011;4872;48.316;10.650;2023-06-14T09:15:02;5.40;;;3.57;;
9667;SDS011;4872;48.316;10.650;2023-06-14T09:17:33;3.73;;;3.43;;
9667;SDS011;4872;48.316;10.650;2023-06-14T09:20:00;4.23;;;3.73;;
9667;SDS011;4872;48.316;10.650;2023-06-14T09:22:31;4.67;;;4.07;;
9667;SDS011;4872;48.316;10.650;2023-06-14T09:24:58;3.83;;;3.50;;
9667;SDS011;4872;48.316;10.650;2023-06-14T09:27:25;4.10;;;3.30;;
9667;SDS011;4872;48.316;10.650;2023-06-14T09:29:52;5.70;;;3.43;;
9667;SDS011;4872;48.316;10.650;2023-06-14T09:32:19;4.33;;;3.50;;
9667;SDS011;4872;48.316;10.650;2023-06-14T09:34:48;3.93;;;3.20;;
9667;SDS011;4872;48.316;10.650;2023-06-14T09:37:26;4.10;;;3.30;;
9667;SDS011;4872;48.316;10.650;2023-06-14T09:39:54;4.23;;;3.20;;
9667;SDS011;4872;48.316;10.650;2023-06-14T09:42:21;4.60;;;3.60;;
9667;SDS011;4872;48.316;10.650;2023-06-14T09:44:50;4.80;;;3.10;;
9667;SDS011;4872;48.316;10.650;2023-06-14T09:47:18;5.33;;;3.03;;
9667;SDS011;4872;48.316;10.650;2023-06-14T09:49:46;3.40;;;3.10;;
9667;SDS011;4872;48.316;10.650;2023-06-14T09:52:15;5.00;;;3.37;;
9667;SDS011;4872;48.316;10.650;2023-06-14T09:54:43;3.50;;;3.20;;
9667;SDS011;4872;48.316;10.650;2023-06-14T09:57:12;4.57;;;3.57;;
9667;SDS011;4872;48.316;10.650;2023-06-14T09:59:41;4.47;;;3.10;;
9667;SDS011;4872;48.316;10.650;2023-06-14T10:02:10;6.10;;;3.20;;
9667;SDS011;4872;48.316;10.650;2023-06-14T10:04:41;4.77;;;2.90;;
9667;SDS011;4872;48.316;10.650;2023-06-14T10:07:17;5.10;;;2.87;;
9667;SDS011;4872;48.316;10.650;2023-06-14T10:09:46;3.70;;;2.80;;
9667;SDS011;4872;48.316;10.650;2023-06-14T10:12:16;5.77;;;3.53;;
9667;SDS011;4872;48.316;10.650;2023-06-14T10:14:46;4.23;;;3.20;;
9667;SDS011;4872;48.316;10.650;2023-06-14T10:17:17;3.93;;;3.03;;
9667;SDS011;4872;48.316;10.650;2023-06-14T10:19:54;4.70;;;3.27;;
9667;SDS011;4872;48.316;10.650;2023-06-14T10:22:30;4.20;;;3.80;;
9667;SDS011;4872;48.316;10.650;2023-06-14T10:25:02;3.07;;;2.77;;
9667;SDS011;4872;48.316;10.650;2023-06-14T10:27:32;5.17;;;3.23;;
9667;SDS011;4872;48.316;10.650;2023-06-14T10:30:03;4.17;;;3.17;;
9667;SDS011;4872;48.316;10.650;2023-06-14T10:32:31;3.57;;;3.27;;
9667;SDS011;4872;48.316;10.650;2023-06-14T10:35:00;3.90;;;2.80;;
9667;SDS011;4872;48.316;10.650;2023-06-14T10:37:31;3.57;;;3.27;;
9667;SDS011;4872;48.316;10.650;2023-06-14T10:39:58;3.27;;;2.97;;
9667;SDS011;4872;48.316;10.650;2023-06-14T10:42:27;3.97;;;2.90;;
9667;SDS011;4872;48.316;10.650;2023-06-14T10:44:57;3.03;;;2.80;;
9667;SDS011;4872;48.316;10.650;2023-06-14T10:47:28;3.83;;;3.43;;
9667;SDS011;4872;48.316;10.650;2023-06-14T10:49:57;5.67;;;3.37;;
9667;SDS011;4872;48.316;10.650;2023-06-14T10:52:32;4.43;;;2.90;;
9667;SDS011;4872;48.316;10.650;2023-06-14T10:55:01;4.70;;;3.50;;
9667;SDS011;4872;48.316;10.650;2023-06-14T10:57:34;3.60;;;3.23;;
9667;SDS011;4872;48.316;10.650;2023-06-14T11:00:02;3.80;;;3.33;;
9667;SDS011;4872;48.316;10.650;2023-06-14T11:05:41;5.30;;;3.40;;
9667;SDS011;4872;48.316;10.650;2023-06-14T11:08:22;3.73;;;3.40;;
9667;SDS011;4872;48.316;10.650;2023-06-14T11:11:05;5.30;;;3.43;;
9667;SDS011;4872;48.316;10.650;2023-06-14T11:13:33;6.70;;;3.00;;
9667;SDS011;4872;48.316;10.650;2023-06-14T11:16:02;3.53;;;3.23;;
9667;SDS011;4872;48.316;10.650;2023-06-14T11:18:36;3.53;;;2.77;;
9667;SDS011;4872;48.316;10.650;2023-06-14T11:21:03;4.77;;;3.70;;
9667;SDS011;4872;48.316;10.650;2023-06-14T11:23:31;5.10;;;3.63;;
9667;SDS011;4872;48.316;10.650;2023-06-14T11:25:58;3.60;;;3.30;;
9667;SDS011;4872;48.316;10.650;2023-06-14T11:28:25;3.50;;;3.17;;
9667;SDS011;4872;48.316;10.650;2023-06-14T11:31:05;5.10;;;3.13;;
9667;SDS011;4872;48.316;10.650;2023-06-14T11:33:32;5.10;;;3.27;;
9667;SDS011;4872;48.316;10.650;2023-06-14T11:36:01;3.40;;;2.80;;
9667;SDS011;4872;48.316;10.650;2023-06-14T11:38:29;5.27;;;3.30;;
9667;SDS011;4872;48.316;10.650;2023-06-14T11:41:01;3.70;;;3.20;;
9667;SDS011;4872;48.316;10.650;2023-06-14T11:43:27;4.03;;;3.17;;
9667;SDS011;4872;48.316;10.650;2023-06-14T11:45:56;4.03;;;3.43;;
9667;SDS011;4872;48.316;10.650;2023-06-14T11:48:23;4.93;;;3.40;;
9667;SDS011;4872;48.316;10.650;2023-06-14T11:51:02;4.03;;;3.63;;
9667;SDS011;4872;48.316;10.650;2023-06-14T11:53:29;6.13;;;4.00;;
9667;SDS011;4872;48.316;10.650;2023-06-14T11:55:57;3.43;;;3.13;;
9667;SDS011;4872;48.316;10.650;2023-06-14T11:58:25;4.90;;;3.40;;
9667;SDS011;4872;48.316;10.650;2023-06-14T12:00:52;4.33;;;3.50;;
9667;SDS011;4872;48.316;10.650;2023-06-14T12:03:22;5.10;;;3.47;;
9667;SDS011;4872;48.316;10.650;2023-06-14T12:05:49;5.60;;;3.43;;
9667;SDS011;4872;48.316;10.650;2023-06-14T12:08:17;4.80;;;3.40;;
9667;SDS011;4872;48.316;10.650;2023-06-14T12:10:44;4.80;;;3.40;;
9667;SDS011;4872;48.316;10.650;2023-06-14T12:13:16;3.57;;;3.27;;
9667;SDS011;4872;48.316;10.650;2023-06-14T12:15:44;3.40;;;3.10;;
9667;SDS011;4872;48.316;10.650;2023-06-14T12:18:11;3.67;;;3.17;;
9667;SDS011;4872;48.316;10.650;2023-06-14T12:20:38;3.73;;;3.10;;
9667;SDS011;4872;48.316;10.650;2023-06-14T12:23:06;5.63;;;3.60;;
9667;SDS011;4872;48.316;10.650;2023-06-14T12:25:34;5.23;;;3.63;;
9667;SDS011;4872;48.316;10.650;2023-06-14T12:28:04;4.30;;;3.30;;
9667;SDS011;4872;48.316;10.650;2023-06-14T12:30:34;5.30;;;3.20;;
9667;SDS011;4872;48.316;10.650;2023-06-14T12:33:01;3.77;;;3.40;;
9667;SDS011;4872;48.316;10.650;2023-06-14T12:35:28;4.13;;;2.93;;
9667;SDS011;4872;48.316;10.650;2023-06-14T12:37:55;4.10;;;3.20;;
9667;SDS011;4872;48.316;10.650;2023-06-14T12:40:22;11.20;;;4.00;;
9667;SDS011;4872;48.316;10.650;2023-06-14T12:42:49;5.10;;;3.23;;
9667;SDS011;4872;48.316;10.650;2023-06-14T12:45:16;4.43;;;3.23;;
9667;SDS011;4872;48.316;10.650;2023-06-14T12:47:44;7.17;;;2.87;;
9667;SDS011;4872;48.316;10.650;2023-06-14T12:50:10;3.77;;;3.30;;
9667;SDS011;4872;48.316;10.650;2023-06-14T12:52:37;4.27;;;3.37;;
9667;SDS011;4872;48.316;10.650;2023-06-14T12:55:04;3.63;;;3.10;;
9667;SDS011;4872;48.316;10.650;2023-06-14T12:57:31;3.80;;;3.40;;
9667;SDS011;4872;48.316;10.650;2023-06-14T13:00:01;3.73;;;3.03;;
9667;SDS011;4872;48.316;10.650;2023-06-14T13:02:30;3.83;;;3.40;;
9667;SDS011;4872;48.316;10.650;2023-06-14T13:04:58;5.00;;;3.10;;
9667;SDS011;4872;48.316;10.650;2023-06-14T13:07:25;4.40;;;3.50;;
9667;SDS011;4872;48.316;10.650;2023-06-14T13:09:52;3.47;;;3.17;;
9667;SDS011;4872;48.316;10.650;2023-06-14T13:12:19;8.40;;;3.30;;
9667;SDS011;4872;48.316;10.650;2023-06-14T13:14:46;5.83;;;3.70;;
9667;SDS011;4872;48.316;10.650;2023-06-14T13:17:12;3.70;;;2.90;;
9667;SDS011;4872;48.316;10.650;2023-06-14T13:19:39;3.57;;;3.27;;
9667;SDS011;4872;48.316;10.650;2023-06-14T13:22:08;5.33;;;3.20;;
9667;SDS011;4872;48.316;10.650;2023-06-14T13:24:35;4.50;;;3.13;;
9667;SDS011;4872;48.316;10.650;2023-06-14T13:27:02;3.40;;;3.10;;
9667;SDS011;4872;48.316;10.650;2023-06-14T13:29:30;3.70;;;3.30;;
9667;SDS011;4872;48.316;10.650;2023-06-14T13:31:58;3.50;;;3.20;;
9667;SDS011;4872;48.316;10.650;2023-06-14T13:34:25;5.43;;;2.90;;
9667;SDS011;4872;48.316;10.650;2023-06-14T13:36:52;4.60;;;3.20;;
9667;SDS011;4872;48.316;10.650;2023-06-14T13:39:21;4.55;;;3.10;;
9667;SDS011;4872;48.316;10.650;2023-06-14T13:41:48;3.45;;;3.15;;
9667;SDS011;4872;48.316;10.650;2023-06-14T13:44:18;5.88;;;3.10;;
9667;SDS011;4872;48.316;10.650;2023-06-14T13:46:46;3.55;;;3.03;;
9667;SDS011;4872;48.316;10.650;2023-06-14T13:49:13;4.68;;;3.00;;
9667;SDS011;4872;48.316;10.650;2023-06-14T13:51:39;4.05;;;3.10;;
9667;SDS011;4872;48.316;10.650;2023-06-14T13:54:06;3.72;;;3.10;;
9667;SDS011;4872;48.316;10.650;2023-06-14T13:56:34;3.72;;;3.42;;
9667;SDS011;4872;48.316;10.650;2023-06-14T13:59:01;3.72;;;3.05;;
9667;SDS011;4872;48.316;10.650;2023-06-14T14:01:28;5.07;;;3.20;;
9667;SDS011;4872;48.316;10.650;2023-06-14T14:03:54;4.43;;;3.03;;
9667;SDS011;4872;48.316;10.650;2023-06-14T14:06:23;3.25;;;2.95;;
9667;SDS011;4872;48.316;10.650;2023-06-14T14:08:50;4.65;;;3.17;;
9667;SDS011;4872;48.316;10.650;2023-06-14T14:11:17;4.47;;;3.53;;
9667;SDS011;4872;48.316;10.650;2023-06-14T14:13:45;4.10;;;3.23;;
9667;SDS011;4872;48.316;10.650;2023-06-14T14:16:12;4.27;;;3.17;;
9667;SDS011;4872;48.316;10.650;2023-06-14T14:18:39;4.27;;;3.07;;
9667;SDS011;4872;48.316;10.650;2023-06-14T14:21:06;3.45;;;2.97;;
9667;SDS011;4872;48.316;10.650;2023-06-14T14:23:34;3.83;;;3.40;;
9667;SDS011;4872;48.316;10.650;2023-06-14T14:26:01;3.60;;;3.17;;
9667;SDS011;4872;48.316;10.650;2023-06-14T14:28:29;4.40;;;3.38;;
9667;SDS011;4872;48.316;10.650;2023-06-14T14:30:57;3.38;;;3.08;;
9667;SDS011;4872;48.316;10.650;2023-06-14T14:33:24;4.00;;;3.10;;
9667;SDS011;4872;48.316;10.650;2023-06-14T14:35:51;4.35;;;3.55;;
9667;SDS011;4872;48.316;10.650;2023-06-14T14:38:17;3.60;;;2.70;;
9667;SDS011;4872;48.316;10.650;2023-06-14T14:40:44;3.17;;;2.88;;
9667;SDS011;4872;48.316;10.650;2023-06-14T14:43:11;3.50;;;2.83;;
9667;SDS011;4872;48.316;10.650;2023-06-14T14:45:38;3.60;;;3.20;;
9667;SDS011;4872;48.316;10.650;2023-06-14T14:48:06;3.63;;;2.87;;
9667;SDS011;4872;48.316;10.650;2023-06-14T14:50:33;5.60;;;3.10;;
9667;SDS011;4872;48.316;10.650;2023-06-14T14:53:02;3.40;;;2.90;;
9667;SDS011;4872;48.316;10.650;2023-06-14T14:55:28;3.90;;;3.40;;
9667;SDS011;4872;48.316;10.650;2023-06-14T14:57:55;3.20;;;2.90;;
9667;SDS011;4872;48.316;10.650;2023-06-14T15:00:22;3.23;;;2.93;;
9667;SDS011;4872;48.316;10.650;2023-06-14T15:02:49;3.30;;;3.00;;
9667;SDS011;4872;48.316;10.650;2023-06-14T15:05:17;4.27;;;3.60;;
9667;SDS011;4872;48.316;10.650;2023-06-14T15:07:44;4.17;;;3.57;;
9667;SDS011;4872;48.316;10.650;2023-06-14T15:10:11;3.45;;;2.97;;
9667;SDS011;4872;48.316;10.650;2023-06-14T15:12:37;3.80;;;3.40;;
9667;SDS011;4872;48.316;10.650;2023-06-14T15:15:04;4.07;;;3.10;;
9667;SDS011;4872;48.316;10.650;2023-06-14T15:17:32;5.28;;;3.53;;
9667;SDS011;4872;48.316;10.650;2023-06-14T15:19:59;3.42;;;3.10;;
9667;SDS011;4872;48.316;10.650;2023-06-14T15:22:27;5.07;;;3.58;;
9667;SDS011;4872;48.316;10.650;2023-06-14T15:24:53;3.40;;;3.03;;
9667;SDS011;4872;48.316;10.650;2023-06-14T15:27:20;4.22;;;3.00;;
9667;SDS011;4872;48.316;10.650;2023-06-14T15:29:47;4.82;;;3.42;;
9667;SDS011;4872;48.316;10.650;2023-06-14T15:32:13;3.20;;;2.90;;
9667;SDS011;4872;48.316;10.650;2023-06-14T15:34:40;3.83;;;2.67;;
9667;SDS011;4872;48.316;10.650;2023-06-14T15:37:07;6.43;;;3.05;;
9667;SDS011;4872;48.316;10.650;2023-06-14T15:39:35;3.45;;;3.15;;
9667;SDS011;4872;48.316;10.650;2023-06-14T15:42:02;3.33;;;2.88;;
9667;SDS011;4872;48.316;10.650;2023-06-14T15:44:31;3.17;;;2.95;;
9667;SDS011;4872;48.316;10.650;2023-06-14T15:46:58;3.33;;;2.92;;
9667;SDS011;4872;48.316;10.650;2023-06-14T15:49:25;3.63;;;3.08;;
9667;SDS011;4872;48.316;10.650;2023-06-14T15:51:51;2.80;;;2.60;;
9667;SDS011;4872;48.316;10.650;2023-06-14T15:54:18;3.17;;;2.88;;
9667;SDS011;4872;48.316;10.650;2023-06-14T15:56:46;3.03;;;2.75;;
9667;SDS011;4872;48.316;10.650;2023-06-14T15:59:13;5.60;;;2.80;;
9667;SDS011;4872;48.316;10.650;2023-06-14T16:01:40;4.22;;;2.90;;
9667;SDS011;4872;48.316;10.650;2023-06-14T16:04:06;3.53;;;3.22;;
9667;SDS011;4872;48.316;10.650;2023-06-14T16:06:33;3.42;;;2.85;;
9667;SDS011;4872;48.316;10.650;2023-06-14T16:09:01;3.50;;;2.80;;
9667;SDS011;4872;48.316;10.650;2023-06-14T16:11:27;4.88;;;3.03;;
9667;SDS011;4872;48.316;10.650;2023-06-14T16:13:56;3.35;;;3.05;;
9667;SDS011;4872;48.316;10.650;2023-06-14T16:16:22;4.47;;;3.15;;
9667;SDS011;4872;48.316;10.650;2023-06-14T16:18:49;4.32;;;3.00;;
9667;SDS011;4872;48.316;10.650;2023-06-14T16:21:16;3.22;;;2.88;;
9667;SDS011;4872;48.316;10.650;2023-06-14T16:23:43;3.78;;;2.72;;
9667;SDS011;4872;48.316;10.650;2023-06-14T16:26:10;2.65;;;2.45;;
9667;SDS011;4872;48.316;10.650;2023-06-14T16:28:38;3.90;;;3.15;;
9667;SDS011;4872;48.316;10.650;2023-06-14T16:31:08;3.30;;;3.00;;
9667;SDS011;4872;48.316;10.650;2023-06-14T16:33:35;2.88;;;2.60;;
9667;SDS011;4872;48.316;10.650;2023-06-14T16:36:01;3.10;;;2.80;;
9667;SDS011;4872;48.316;10.650;2023-06-14T16:38:29;4.07;;;2.70;;
9667;SDS011;4872;48.316;10.650;2023-06-14T16:40:55;5.20;;;3.00;;
9667;SDS011;4872;48.316;10.650;2023-06-14T16:43:22;3.78;;;3.22;;
9667;SDS011;4872;48.316;10.650;2023-06-14T16:45:49;4.68;;;2.88;;
9667;SDS011;4872;48.316;10.650;2023-06-14T16:48:17;3.28;;;2.65;;
9667;SDS011;4872;48.316;10.650;2023-06-14T16:50:44;4.88;;;3.10;;
9667;SDS011;4872;48.316;10.650;2023-06-14T16:53:10;4.15;;;3.03;;
9667;SDS011;4872;48.316;10.650;2023-06-14T16:55:37;3.28;;;2.83;;
9667;SDS011;4872;48.316;10.650;2023-06-14T16:58:04;4.05;;;2.80;;
9667;SDS011;4872;48.316;10.650;2023-06-14T17:00:31;4.80;;;2.70;;
9667;SDS011;4872;48.316;10.650;2023-06-14T17:02:57;3.33;;;2.67;;
9667;SDS011;4872;48.316;10.650;2023-06-14T17:05:26;4.35;;;2.72;;
9667;SDS011;4872;48.316;10.650;2023-06-14T17:07:53;4.10;;;3.08;;
9667;SDS011;4872;48.316;10.650;2023-06-14T17:10:20;4.30;;;2.92;;
9667;SDS011;4872;48.316;10.650;2023-06-14T17:12:47;4.07;;;3.15;;
9667;SDS011;4872;48.316;10.650;2023-06-14T17:15:13;3.20;;;2.90;;
9667;SDS011;4872;48.316;10.650;2023-06-14T17:17:40;3.35;;;3.10;;
9667;SDS011;4872;48.316;10.650;2023-06-14T17:20:08;3.92;;;3.15;;
9667;SDS011;4872;48.316;10.650;2023-06-14T17:22:37;3.20;;;3.00;;
9667;SDS011;4872;48.316;10.650;2023-06-14T17:25:06;3.38;;;2.60;;
9667;SDS011;4872;48.316;10.650;2023-06-14T17:27:33;3.45;;;3.15;;
9667;SDS011;4872;48.316;10.650;2023-06-14T17:30:00;3.55;;;2.70;;
9667;SDS011;4872;48.316;10.650;2023-06-14T17:32:26;5.10;;;3.22;;
9667;SDS011;4872;48.316;10.650;2023-06-14T17:34:53;3.20;;;2.90;;
9667;SDS011;4872;48.316;10.650;2023-06-14T17:37:20;5.20;;;2.90;;
9667;SDS011;4872;48.316;10.650;2023-06-14T17:39:48;3.47;;;3.17;;
9667;SDS011;4872;48.316;10.650;2023-06-14T17:42:15;3.60;;;2.80;;
9667;SDS011;4872;48.316;10.650;2023-06-14T17:44:41;3.65;;;3.35;;
9667;SDS011;4872;48.316;10.650;2023-06-14T17:47:09;3.17;;;2.90;;
9667;SDS011;4872;48.316;10.650;2023-06-14T17:49:36;3.60;;;3.03;;
9667;SDS011;4872;48.316;10.650;2023-06-14T17:52:03;3.60;;;3.03;;
9667;SDS011;4872;48.316;10.650;2023-06-14T17:54:30;5.45;;;2.88;;
9667;SDS011;4872;48.316;10.650;2023-06-14T17:56:58;4.10;;;2.88;;
9667;SDS011;4872;48.316;10.650;2023-06-14T17:59:24;3.53;;;3.10;;
9667;SDS011;4872;48.316;10.650;2023-06-14T18:01:51;2.90;;;2.70;;
9667;SDS011;4872;48.316;10.650;2023-06-14T18:04:18;3.40;;;3.10;;
9667;SDS011;4872;48.316;10.650;2023-06-14T18:06:45;3.75;;;2.90;;
9667;SDS011;4872;48.316;10.650;2023-06-14T18:09:11;3.83;;;2.97;;
9667;SDS011;4872;48.316;10.650;2023-06-14T18:11:39;3.55;;;3.25;;
9667;SDS011;4872;48.316;10.650;2023-06-14T18:14:08;5.07;;;3.45;;
9667;SDS011;4872;48.316;10.650;2023-06-14T18:16:35;3.75;;;3.00;;
9667;SDS011;4872;48.316;10.650;2023-06-14T18:19:03;4.13;;;3.03;;
9667;SDS011;4872;48.316;10.650;2023-06-14T18:21:30;4.05;;;3.08;;
9667;SDS011;4872;48.316;10.650;2023-06-14T18:23:57;3.45;;;3.13;;
9667;SDS011;4872;48.316;10.650;2023-06-14T18:26:24;3.85;;;3.50;;
9667;SDS011;4872;48.316;10.650;2023-06-14T18:28:52;3.63;;;3.15;;
9667;SDS011;4872;48.316;10.650;2023-06-14T18:31:22;3.53;;;3.13;;
9667;SDS011;4872;48.316;10.650;2023-06-14T18:33:49;4.80;;;3.78;;
9667;SDS011;4872;48.316;10.650;2023-06-14T18:36:15;4.22;;;3.50;;
9667;SDS011;4872;48.316;10.650;2023-06-14T18:38:44;5.20;;;3.80;;
9667;SDS011;4872;48.316;10.650;2023-06-14T18:41:11;7.28;;;4.05;;
9667;SDS011;4872;48.316;10.650;2023-06-14T18:43:38;5.27;;;3.40;;
9667;SDS011;4872;48.316;10.650;2023-06-14T18:46:04;6.10;;;3.93;;
9667;SDS011;4872;48.316;10.650;2023-06-14T18:48:33;5.23;;;3.50;;
9667;SDS011;4872;48.316;10.650;2023-06-14T18:51:00;3.93;;;3.63;;
9667;SDS011;4872;48.316;10.650;2023-06-14T18:53:27;4.43;;;3.87;;
9667;SDS011;4872;48.316;10.650;2023-06-14T18:55:54;5.47;;;3.57;;
9667;SDS011;4872;48.316;10.650;2023-06-14T18:58:21;5.17;;;4.03;;
9667;SDS011;4872;48.316;10.650;2023-06-14T19:00:48;4.57;;;3.70;;
9667;SDS011;4872;48.316;10.650;2023-06-14T19:03:15;5.03;;;3.83;;
9667;SDS011;4872;48.316;10.650;2023-06-14T19:05:43;3.90;;;3.50;;
9667;SDS011;4872;48.316;10.650;2023-06-14T19:08:10;6.13;;;4.20;;
9667;SDS011;4872;48.316;10.650;2023-06-14T19:10:36;7.43;;;4.03;;
9667;SDS011;4872;48.316;10.650;2023-06-14T19:13:03;5.33;;;3.53;;